createdAt,value
2022-11-13T00:03:32.837Z,-0.78
2022-11-13T00:08:55.240Z,-0.83
2022-11-13T00:14:15.599Z,-0.90
2022-11-13T00:19:36.486Z,-0.89
2022-11-13T00:24:56.630Z,-0.96
2022-11-13T00:30:19.515Z,-0.96
2022-11-13T00:35:40.197Z,-1.07
2022-11-13T00:41:01.252Z,-0.99
2022-11-13T00:46:21.326Z,-0.95
2022-11-13T00:51:41.800Z,-0.97
2022-11-13T00:57:02.180Z,-1.05
2022-11-13T01:02:22.602Z,-1.02
2022-11-13T01:07:42.870Z,-1.10
2022-11-13T01:13:03.184Z,-1.26
2022-11-13T01:18:23.655Z,-1.26
2022-11-13T01:23:44.678Z,-1.49
2022-11-13T01:29:05.137Z,-1.39
2022-11-13T01:34:25.276Z,-1.33
2022-11-13T01:39:45.720Z,-1.22
2022-11-13T01:45:43.883Z,-1.18
2022-11-13T01:51:16.583Z,-1.22
2022-11-13T01:56:37.166Z,-1.26
2022-11-13T02:01:58.671Z,-1.37
2022-11-13T02:07:21.749Z,-1.35
2022-11-13T02:12:49.905Z,-1.39
2022-11-13T02:18:11.461Z,-1.47
2022-11-13T02:23:43.992Z,-1.52
2022-11-13T02:29:04.222Z,-1.55
2022-11-13T02:34:24.703Z,-1.54
2022-11-13T02:39:45.365Z,-1.57
2022-11-13T02:45:07.104Z,-1.65
2022-11-13T02:50:27.821Z,-1.77
2022-11-13T02:55:47.922Z,-1.86
2022-11-13T03:01:09.795Z,-1.83
2022-11-13T03:06:29.921Z,-1.86
2022-11-13T03:11:50.354Z,-1.83
2022-11-13T03:17:10.774Z,-1.90
2022-11-13T03:22:31.101Z,-1.96
2022-11-13T03:27:51.348Z,-1.93
2022-11-13T03:33:11.785Z,-1.81
2022-11-13T03:38:32.470Z,-1.85
2022-11-13T03:43:52.639Z,-1.83
2022-11-13T03:49:13.087Z,-1.82
2022-11-13T03:54:33.444Z,-1.84
2022-11-13T03:59:53.929Z,-1.82
2022-11-13T04:05:17.508Z,-1.79
2022-11-13T04:10:42.313Z,-1.88
2022-11-13T04:16:02.380Z,-1.96
2022-11-13T04:21:22.498Z,-2.01
2022-11-13T04:26:42.974Z,-2.17
2022-11-13T04:32:03.185Z,-2.17
2022-11-13T04:37:23.643Z,-2.24
2022-11-13T04:42:49.882Z,-2.18
2022-11-13T04:48:10.185Z,-2.15
2022-11-13T04:53:30.558Z,-2.26
2022-11-13T04:58:51.000Z,-2.32
2022-11-13T05:04:13.833Z,-2.44
2022-11-13T05:09:34.036Z,-2.27
2022-11-13T05:14:54.199Z,-2.31
2022-11-13T05:20:14.500Z,-2.27
2022-11-13T05:25:34.675Z,-2.45
2022-11-13T05:31:09.776Z,-2.51
2022-11-13T05:36:29.916Z,-2.50
2022-11-13T05:41:50.005Z,-2.51
2022-11-13T05:47:10.330Z,-2.41
2022-11-13T05:52:30.690Z,-2.41
2022-11-13T05:57:50.877Z,-2.42
2022-11-13T06:03:11.110Z,-2.42
2022-11-13T06:08:31.684Z,-2.41
2022-11-13T06:13:53.228Z,-2.48
2022-11-13T06:19:13.388Z,-2.42
2022-11-13T06:24:33.656Z,-2.46
2022-11-13T06:29:54.011Z,-2.53
2022-11-13T06:35:14.132Z,-2.55
2022-11-13T06:40:34.502Z,-2.45
2022-11-13T06:45:55.757Z,-2.49
2022-11-13T06:51:21.853Z,-2.45
2022-11-13T06:56:45.431Z,-2.45
2022-11-13T07:02:06.605Z,-2.32
2022-11-13T07:07:26.607Z,-2.29
2022-11-13T07:12:49.439Z,-2.12
2022-11-13T07:18:13.723Z,-1.96
2022-11-13T07:23:36.990Z,-1.77
2022-11-13T07:28:57.274Z,-1.65
2022-11-13T07:34:17.666Z,-1.45
2022-11-13T07:39:37.790Z,-1.26
2022-11-13T07:44:58.225Z,-1.08
2022-11-13T07:50:18.664Z,-0.95
2022-11-13T07:55:38.814Z,-0.86
2022-11-13T08:01:04.247Z,-0.52
2022-11-13T08:06:27.564Z,-0.05
2022-11-13T08:11:47.630Z,0.32
2022-11-13T08:17:07.901Z,0.68
2022-11-13T08:22:28.095Z,1.05
2022-11-13T08:27:48.478Z,1.43
2022-11-13T08:33:08.669Z,1.85
2022-11-13T08:38:29.202Z,2.35
2022-11-13T08:43:49.407Z,2.72
2022-11-13T08:49:09.736Z,3.25
2022-11-13T08:54:30.019Z,3.81
2022-11-13T08:59:50.110Z,4.28
2022-11-13T09:05:10.884Z,4.82
2022-11-13T09:10:31.145Z,5.38
2022-11-13T09:15:51.536Z,5.73
2022-11-13T09:21:11.941Z,6.30
2022-11-13T09:26:32.347Z,6.93
2022-11-13T09:31:52.490Z,7.51
2022-11-13T09:37:14.971Z,7.84
2022-11-13T09:42:40.334Z,7.66
2022-11-13T09:48:29.528Z,7.99
2022-11-13T09:53:50.211Z,8.65
2022-11-13T09:59:24.807Z,9.33
2022-11-13T10:05:28.915Z,9.74
2022-11-13T10:10:58.116Z,10.09
2022-11-13T10:16:32.070Z,10.40
2022-11-13T10:22:32.704Z,10.60
2022-11-13T10:27:57.045Z,10.94
2022-11-13T10:33:20.245Z,11.38
2022-11-13T10:38:50.082Z,12.57
2022-11-13T10:44:26.214Z,13.65
2022-11-13T10:49:46.242Z,14.33
2022-11-13T10:55:34.688Z,15.28
2022-11-13T11:00:54.674Z,17.63
2022-11-13T11:06:14.963Z,18.11
2022-11-13T11:11:54.231Z,18.09
2022-11-13T11:17:18.529Z,16.35
2022-11-13T11:22:40.788Z,15.45
2022-11-13T11:28:07.407Z,16.01
2022-11-13T11:33:52.525Z,16.32
2022-11-13T11:39:30.207Z,16.55
2022-11-13T11:45:01.509Z,16.00
2022-11-13T11:50:47.770Z,18.68
2022-11-13T11:56:20.077Z,20.65
2022-11-13T12:02:04.708Z,19.19
2022-11-13T12:07:34.082Z,23.77
2022-11-13T12:13:31.617Z,24.92
2022-11-13T12:19:24.083Z,23.62
2022-11-13T12:25:20.376Z,23.44
2022-11-13T12:31:00.094Z,22.27
2022-11-13T12:36:21.440Z,22.79
2022-11-13T12:42:00.875Z,20.76
2022-11-13T12:47:21.385Z,23.53
2022-11-13T12:52:41.551Z,23.73
2022-11-13T12:58:40.465Z,21.41
2022-11-13T13:04:26.368Z,20.85
2022-11-13T13:10:07.162Z,17.22
2022-11-13T13:15:37.853Z,15.50
2022-11-13T13:21:03.615Z,14.26
2022-11-13T13:26:26.619Z,14.04
2022-11-13T13:31:57.014Z,13.73
2022-11-13T13:37:43.204Z,13.37
2022-11-13T13:43:12.343Z,13.46
2022-11-13T13:48:36.952Z,13.55
2022-11-13T13:54:00.573Z,13.27
2022-11-13T13:59:29.020Z,13.09
2022-11-13T14:04:54.633Z,13.30
2022-11-13T14:10:24.045Z,13.16
2022-11-13T14:15:44.635Z,13.19
2022-11-13T14:21:25.033Z,12.95
2022-11-13T14:26:46.118Z,12.81
2022-11-13T14:32:13.317Z,12.67
2022-11-13T14:37:39.345Z,12.43
2022-11-13T14:43:07.664Z,11.98
2022-11-13T14:48:33.579Z,12.15
2022-11-13T14:55:08.097Z,12.00
2022-11-13T15:00:28.881Z,11.54
2022-11-13T15:05:49.697Z,11.01
2022-11-13T15:11:14.418Z,10.64
2022-11-13T15:16:35.973Z,10.38
2022-11-13T15:22:25.372Z,9.95
2022-11-13T15:27:41.835Z,9.37
2022-11-13T15:33:12.413Z,8.91
2022-11-13T15:38:32.763Z,8.55
2022-11-13T15:43:55.655Z,8.34
2022-11-13T15:49:15.780Z,7.89
2022-11-13T15:54:38.703Z,7.99
2022-11-13T15:59:59.154Z,8.10
2022-11-13T16:05:19.960Z,8.07
2022-11-13T16:10:40.372Z,7.84
2022-11-13T16:16:01.130Z,7.60
2022-11-13T16:21:22.289Z,7.39
2022-11-13T16:26:50.709Z,7.20
2022-11-13T16:32:16.653Z,7.06
2022-11-13T16:37:36.745Z,6.81
2022-11-13T16:42:57.762Z,6.69
2022-11-13T16:48:18.512Z,6.55
2022-11-13T16:53:38.670Z,6.34
2022-11-13T16:58:59.488Z,6.12
2022-11-13T17:04:20.038Z,6.40
2022-11-13T17:09:41.837Z,6.12
2022-11-13T17:15:01.816Z,5.69
2022-11-13T17:20:22.390Z,5.31
2022-11-13T17:25:42.806Z,5.20
2022-11-13T17:31:04.767Z,5.21
2022-11-13T17:36:25.055Z,4.97
2022-11-13T17:41:45.362Z,5.05
2022-11-13T17:47:05.502Z,5.29
2022-11-13T17:52:25.680Z,5.20
2022-11-13T17:57:45.848Z,5.12
2022-11-13T18:03:06.269Z,4.77
2022-11-13T18:08:26.501Z,4.72
2022-11-13T18:13:48.223Z,4.78
2022-11-13T18:19:09.291Z,5.47
2022-11-13T18:24:29.396Z,5.69
2022-11-13T18:29:49.442Z,5.47
2022-11-13T18:35:09.938Z,5.63
2022-11-13T18:40:29.822Z,5.53
2022-11-13T18:46:00.996Z,5.57
2022-11-13T18:51:23.654Z,5.22
2022-11-13T18:56:44.067Z,5.16
2022-11-13T19:02:04.498Z,5.45
2022-11-13T19:07:24.847Z,5.71
2022-11-13T19:12:44.885Z,5.78
2022-11-13T19:18:06.578Z,5.87
2022-11-13T19:23:26.519Z,6.11
2022-11-13T19:28:48.692Z,6.30
2022-11-13T19:34:08.773Z,6.23
2022-11-13T19:39:29.181Z,5.90
2022-11-13T19:44:49.228Z,5.39
2022-11-13T19:50:10.318Z,5.40
2022-11-13T19:55:30.861Z,5.20
2022-11-13T20:00:52.843Z,5.48
2022-11-13T20:06:16.417Z,5.91
2022-11-13T20:11:36.795Z,5.75
2022-11-13T20:16:57.076Z,5.66
2022-11-13T20:22:17.278Z,5.65
2022-11-13T20:27:37.798Z,5.35
2022-11-13T20:32:58.298Z,5.39
2022-11-13T20:38:18.589Z,5.13
2022-11-13T20:43:38.970Z,5.30
2022-11-13T20:48:59.294Z,5.26
2022-11-13T20:54:19.230Z,5.36
2022-11-13T20:59:39.512Z,5.43
2022-11-13T21:04:59.745Z,5.43
2022-11-13T21:10:20.006Z,5.44
2022-11-13T21:15:40.182Z,5.47
2022-11-13T21:21:08.512Z,5.52
2022-11-13T21:26:29.039Z,5.43
2022-11-13T21:31:48.992Z,5.16
2022-11-13T21:37:10.946Z,5.17
2022-11-13T21:42:30.965Z,5.08
2022-11-13T21:47:52.742Z,5.47
2022-11-13T21:53:12.976Z,5.32
2022-11-13T21:58:36.124Z,5.32
2022-11-13T22:03:56.221Z,5.31
2022-11-13T22:09:22.430Z,5.12
2022-11-13T22:14:42.483Z,4.83
2022-11-13T22:20:02.772Z,4.52
2022-11-13T22:25:23.019Z,4.39
2022-11-13T22:30:46.126Z,4.69
2022-11-13T22:36:09.854Z,4.87
2022-11-13T22:41:32.327Z,4.96
2022-11-13T22:46:52.270Z,4.99
2022-11-13T22:52:12.513Z,5.33
2022-11-13T22:57:32.771Z,5.30
2022-11-13T23:02:53.141Z,5.16
2022-11-13T23:08:13.361Z,5.46
2022-11-13T23:13:34.071Z,5.39
2022-11-13T23:18:56.108Z,5.16
2022-11-13T23:24:16.320Z,4.97
2022-11-13T23:29:36.649Z,4.56
2022-11-13T23:34:59.513Z,4.48
2022-11-13T23:40:20.197Z,4.85
2022-11-13T23:45:40.402Z,5.13
2022-11-13T23:51:01.678Z,5.13
2022-11-13T23:56:21.810Z,5.34
